メインページ
METAR-TAF:

METAR-TAF

空港 :

香港国際空港

香港, 中華人民共和国

緯度: 22-19N, 経度: 113-55E, 海抜: 9m

現時点の気象観測

当レポートは12分前の12:00(UTC)に作成
南/南東の風 10kt
気温 30°C
湿度 62%
気圧 1009 hPa
視程10km以上
1,500メートル以下は雲なし、積乱雲なし

METAR: VHHH 221200Z 16010KT CAVOK 30/22 Q1009 NOSIG

時間: 20:12 (12:12 UTC)

予報

当レポートは1時間12分前の11:00(UTC)に作成
予報は22日の 12時(UTC)から 23日の 18時(UTC)まで有効
変向風 5kt
視程: 9000m
高度2500ftの雲はほとんどない
22日の 12時(UTC)から 22日の 18時(UTC)まで一時的に
南/南東の風 10kt
22日の 21時(UTC)から 23日の 06時(UTC)まで一時的に
西/北西の風 10kt
23日の 06時(UTC)から 23日の 10時(UTC)まで一時的に
西/南西の風 10kt
23日の 10時(UTC)から 23日の 18時(UTC)まで一時的に
南/南東の風 10kt

TAF: VHHH 221100Z 2212/2318 VRB05KT 9000 FEW025 TX36/2306Z TN28/2222Z TEMPO 2212/2218 16010KT TEMPO 2221/2306 30010KT TEMPO 2306/2310 24010KT TEMPO 2310/2318 16010KT

4,000以上の空港の気象観測と天気予報(METAR報とTAF報)

利用可能な観測所は地図上に黄色い丸と赤い丸で示す。

丸の上にカーソルを重ねると観測所名を参照できる。

次にクリックすると気象観測と天気予報を参照できる。

マップの切り替え:黒色「×」印の緑ボタンをクリックして拡大、「-」印の緑ボタンをクリックして縮小、緑色の三角印をクリックして隣りの地図に切り替え


METAR-TAF: